sensor_id;sensor_type;location;lat;lon;timestamp;pressure;altitude;pressure_sealevel;temperature;humidity
59825;BME280;45703;50.898;6.054;2023-02-10T00:00:24;102153.88;;;3.93;83.54
59825;BME280;45703;50.898;6.054;2023-02-10T00:02:49;102152.09;;;3.93;83.79
59825;BME280;45703;50.898;6.054;2023-02-10T00:05:15;102145.84;;;3.94;83.89
59825;BME280;45703;50.898;6.054;2023-02-10T00:07:40;102153.06;;;3.92;83.91
59825;BME280;45703;50.898;6.054;2023-02-10T00:10:06;102158.09;;;3.95;84.06
59825;BME280;45703;50.898;6.054;2023-02-10T00:12:34;102165.75;;;3.98;84.42
59825;BME280;45703;50.898;6.054;2023-02-10T00:15:00;102171.16;;;3.97;84.22
59825;BME280;45703;50.898;6.054;2023-02-10T00:17:25;102167.94;;;3.93;84.55
59825;BME280;45703;50.898;6.054;2023-02-10T00:19:50;102165.31;;;4.03;84.63
59825;BME280;45703;50.898;6.054;2023-02-10T00:22:16;102173.13;;;4.04;84.48
59825;BME280;45703;50.898;6.054;2023-02-10T00:24:41;102163.91;;;3.99;84.48
59825;BME280;45703;50.898;6.054;2023-02-10T00:27:07;102177.19;;;4.08;84.29
59825;BME280;45703;50.898;6.054;2023-02-10T00:29:32;102173.13;;;4.04;84.35
59825;BME280;45703;50.898;6.054;2023-02-10T00:31:57;102179.28;;;4.14;84.15
59825;BME280;45703;50.898;6.054;2023-02-10T00:34:23;102175.13;;;4.12;84.06
59825;BME280;45703;50.898;6.054;2023-02-10T00:36:50;102181.78;;;4.06;84.31
59825;BME280;45703;50.898;6.054;2023-02-10T00:39:16;102170.66;;;4.12;84.10
59825;BME280;45703;50.898;6.054;2023-02-10T00:41:41;102172.16;;;4.05;84.40
59825;BME280;45703;50.898;6.054;2023-02-10T00:44:07;102186.78;;;4.09;84.27
59825;BME280;45703;50.898;6.054;2023-02-10T00:46:33;102179.66;;;4.00;84.33
59825;BME280;45703;50.898;6.054;2023-02-10T00:48:58;102186.03;;;3.98;84.71
59825;BME280;45703;50.898;6.054;2023-02-10T00:51:24;102180.63;;;3.99;84.64
59825;BME280;45703;50.898;6.054;2023-02-10T00:53:49;102185.78;;;4.01;84.85
59825;BME280;45703;50.898;6.054;2023-02-10T00:56:16;102180.63;;;3.99;84.66
59825;BME280;45703;50.898;6.054;2023-02-10T00:58:42;102186.72;;;4.00;84.83
59825;BME280;45703;50.898;6.054;2023-02-10T01:01:08;102181.59;;;3.98;84.82
59825;BME280;45703;50.898;6.054;2023-02-10T01:03:33;102182.31;;;4.00;84.79
59825;BME280;45703;50.898;6.054;2023-02-10T01:05:59;102190.09;;;4.02;84.65
59825;BME280;45703;50.898;6.054;2023-02-10T01:08:25;102194.28;;;4.04;84.66
59825;BME280;45703;50.898;6.054;2023-02-10T01:10:57;102190.22;;;4.00;84.65
59825;BME280;45703;50.898;6.054;2023-02-10T01:13:22;102183.72;;;4.04;84.42
59825;BME280;45703;50.898;6.054;2023-02-10T01:15:48;102184.69;;;4.03;84.59
59825;BME280;45703;50.898;6.054;2023-02-10T01:18:13;102187.66;;;4.10;84.25
59825;BME280;45703;50.898;6.054;2023-02-10T01:20:40;102185.97;;;4.09;84.03
59825;BME280;45703;50.898;6.054;2023-02-10T01:23:05;102189.81;;;4.05;84.17
59825;BME280;45703;50.898;6.054;2023-02-10T01:25:32;102189.25;;;4.01;84.23
59825;BME280;45703;50.898;6.054;2023-02-10T01:27:57;102191.19;;;3.99;84.44
59825;BME280;45703;50.898;6.054;2023-02-10T01:30:24;102184.50;;;3.95;84.41
59825;BME280;45703;50.898;6.054;2023-02-10T01:32:52;102194.28;;;4.04;84.39
59825;BME280;45703;50.898;6.054;2023-02-10T01:35:17;102195.50;;;4.00;84.50
59825;BME280;45703;50.898;6.054;2023-02-10T01:37:42;102205.69;;;4.05;84.45
59825;BME280;45703;50.898;6.054;2023-02-10T01:40:08;102205.69;;;4.05;84.06
59825;BME280;45703;50.898;6.054;2023-02-10T01:42:34;102199.84;;;4.01;84.26
59825;BME280;45703;50.898;6.054;2023-02-10T01:45:12;102201.25;;;4.05;84.09
59825;BME280;45703;50.898;6.054;2023-02-10T01:47:39;102204.97;;;4.03;84.02
59825;BME280;45703;50.898;6.054;2023-02-10T01:50:04;102211.63;;;3.97;84.09
59825;BME280;45703;50.898;6.054;2023-02-10T01:52:30;102211.63;;;3.97;84.21
59825;BME280;45703;50.898;6.054;2023-02-10T01:54:59;102210.25;;;4.03;84.26
59825;BME280;45703;50.898;6.054;2023-02-10T01:57:27;102213.31;;;3.98;84.21
59825;BME280;45703;50.898;6.054;2023-02-10T01:59:52;102214.28;;;3.97;84.28
59825;BME280;45703;50.898;6.054;2023-02-10T02:02:17;102215.97;;;3.98;84.28
59825;BME280;45703;50.898;6.054;2023-02-10T02:04:51;102210.34;;;3.92;84.38
59825;BME280;45703;50.898;6.054;2023-02-10T02:07:17;102212.47;;;3.98;84.43
59825;BME280;45703;50.898;6.054;2023-02-10T02:09:43;102220.28;;;3.99;84.22
59825;BME280;45703;50.898;6.054;2023-02-10T02:12:24;102214.81;;;3.91;84.48
59825;BME280;45703;50.898;6.054;2023-02-10T02:15:02;102222.91;;;3.99;84.41
59825;BME280;45703;50.898;6.054;2023-02-10T02:28:21;102220.06;;;4.12;84.01
59825;BME280;45703;50.898;6.054;2023-02-10T02:30:54;102224.59;;;4.00;84.30
59825;BME280;45703;50.898;6.054;2023-02-10T02:36:00;102238.25;;;4.05;84.21
59825;BME280;45703;50.898;6.054;2023-02-10T02:38:26;102234.63;;;4.06;84.09
59825;BME280;45703;50.898;6.054;2023-02-10T02:40:52;102233.47;;;3.99;84.46
59825;BME280;45703;50.898;6.054;2023-02-10T02:43:18;102231.81;;;3.98;84.33
59825;BME280;45703;50.898;6.054;2023-02-10T02:45:55;102224.59;;;4.00;84.28
59825;BME280;45703;50.898;6.054;2023-02-10T02:48:46;102230.50;;;3.93;84.44
59825;BME280;45703;50.898;6.054;2023-02-10T02:51:18;102235.16;;;4.00;84.58
59825;BME280;45703;50.898;6.054;2023-02-10T02:53:55;102234.31;;;4.00;84.56
59825;BME280;45703;50.898;6.054;2023-02-10T02:56:32;102235.69;;;3.94;84.77
59825;BME280;45703;50.898;6.054;2023-02-10T02:59:23;102238.78;;;3.99;84.70
59825;BME280;45703;50.898;6.054;2023-02-10T03:01:48;102240.25;;;3.92;85.49
59825;BME280;45703;50.898;6.054;2023-02-10T03:04:17;102239.31;;;4.03;84.69
59825;BME280;45703;50.898;6.054;2023-02-10T03:06:43;102246.25;;;3.94;85.15
59825;BME280;45703;50.898;6.054;2023-02-10T03:09:08;102248.19;;;3.92;84.85
59825;BME280;45703;50.898;6.054;2023-02-10T03:11:34;102243.44;;;3.86;85.13
59825;BME280;45703;50.898;6.054;2023-02-10T03:13:59;102249.69;;;3.85;84.93
59825;BME280;45703;50.898;6.054;2023-02-10T03:16:25;102241.97;;;3.82;84.96
59825;BME280;45703;50.898;6.054;2023-02-10T03:18:50;102239.59;;;3.79;84.98
59825;BME280;45703;50.898;6.054;2023-02-10T03:21:16;102234.13;;;3.71;85.12
59825;BME280;45703;50.898;6.054;2023-02-10T03:23:41;102232.00;;;3.65;85.18
59825;BME280;45703;50.898;6.054;2023-02-10T03:26:07;102221.00;;;3.60;85.23
59825;BME280;45703;50.898;6.054;2023-02-10T03:28:32;102210.22;;;3.52;85.39
59825;BME280;45703;50.898;6.054;2023-02-10T03:31:00;102211.53;;;3.58;85.26
59825;BME280;45703;50.898;6.054;2023-02-10T03:33:26;102205.72;;;3.43;85.47
59825;BME280;45703;50.898;6.054;2023-02-10T03:35:52;102196.66;;;3.36;85.63
59825;BME280;45703;50.898;6.054;2023-02-10T03:38:17;102191.13;;;3.28;85.74
59825;BME280;45703;50.898;6.054;2023-02-10T03:40:42;102188.91;;;3.24;85.84
59825;BME280;45703;50.898;6.054;2023-02-10T03:43:08;102169.25;;;3.17;85.86
59825;BME280;45703;50.898;6.054;2023-02-10T03:45:33;102174.41;;;3.18;85.93
59825;BME280;45703;50.898;6.054;2023-02-10T03:47:59;102183.06;;;3.09;85.96
59825;BME280;45703;50.898;6.054;2023-02-10T03:50:24;102188.88;;;3.03;86.18
59825;BME280;45703;50.898;6.054;2023-02-10T03:52:50;102194.75;;;3.07;86.37
59825;BME280;45703;50.898;6.054;2023-02-10T03:55:16;102191.88;;;2.99;86.17
59825;BME280;45703;50.898;6.054;2023-02-10T03:57:44;102192.75;;;2.88;86.34
59825;BME280;45703;50.898;6.054;2023-02-10T04:00:10;102208.44;;;2.90;86.39
59825;BME280;45703;50.898;6.054;2023-02-10T04:02:35;102204.38;;;2.86;86.49
59825;BME280;45703;50.898;6.054;2023-02-10T04:05:01;102212.09;;;2.78;86.83
59825;BME280;45703;50.898;6.054;2023-02-10T04:07:26;102210.88;;;2.82;87.00
59825;BME280;45703;50.898;6.054;2023-02-10T04:09:52;102214.38;;;2.83;86.69
59825;BME280;45703;50.898;6.054;2023-02-10T04:12:17;102219.38;;;2.75;86.79
59825;BME280;45703;50.898;6.054;2023-02-10T04:14:42;102226.00;;;2.69;86.94
59825;BME280;45703;50.898;6.054;2023-02-10T04:17:08;102224.44;;;2.67;86.96
59825;BME280;45703;50.898;6.054;2023-02-10T04:19:33;102225.53;;;2.64;87.07
59825;BME280;45703;50.898;6.054;2023-02-10T04:21:59;102229.22;;;2.73;87.01
59825;BME280;45703;50.898;6.054;2023-02-10T04:24:24;102220.81;;;2.78;86.72
59825;BME280;45703;50.898;6.054;2023-02-10T04:26:49;102231.88;;;2.73;87.15
59825;BME280;45703;50.898;6.054;2023-02-10T04:29:15;102235.81;;;2.78;86.63
59825;BME280;45703;50.898;6.054;2023-02-10T04:31:40;102236.44;;;2.82;86.88
59825;BME280;45703;50.898;6.054;2023-02-10T04:34:06;102241.34;;;2.75;86.85
59825;BME280;45703;50.898;6.054;2023-02-10T04:36:31;102244.47;;;2.69;86.86
59825;BME280;45703;50.898;6.054;2023-02-10T04:38:56;102242.66;;;2.70;86.81
59825;BME280;45703;50.898;6.054;2023-02-10T04:41:22;102244.09;;;2.63;86.98
59825;BME280;45703;50.898;6.054;2023-02-10T04:43:48;102249.84;;;2.68;87.36
59825;BME280;45703;50.898;6.054;2023-02-10T04:46:13;102245.31;;;2.59;87.21
59825;BME280;45703;50.898;6.054;2023-02-10T04:48:39;102241.84;;;2.69;87.04
59825;BME280;45703;50.898;6.054;2023-02-10T04:51:08;102243.41;;;2.61;87.31
59825;BME280;45703;50.898;6.054;2023-02-10T04:53:33;102240.97;;;2.69;87.22
59825;BME280;45703;50.898;6.054;2023-02-10T04:55:58;102251.78;;;2.66;87.08
59825;BME280;45703;50.898;6.054;2023-02-10T04:58:24;102244.81;;;2.65;87.15
59825;BME280;45703;50.898;6.054;2023-02-10T05:00:49;102256.56;;;2.61;87.08
59825;BME280;45703;50.898;6.054;2023-02-10T05:03:15;102253.13;;;2.60;87.10
59825;BME280;45703;50.898;6.054;2023-02-10T05:05:40;102253.94;;;2.61;87.28
59825;BME280;45703;50.898;6.054;2023-02-10T05:08:06;102250.34;;;2.51;87.62
59825;BME280;45703;50.898;6.054;2023-02-10T05:10:31;102255.16;;;2.46;87.44
59825;BME280;45703;50.898;6.054;2023-02-10T05:12:57;102249.28;;;2.42;87.51
59825;BME280;45703;50.898;6.054;2023-02-10T05:15:22;102245.69;;;2.43;87.56
59825;BME280;45703;50.898;6.054;2023-02-10T05:17:48;102248.94;;;2.36;87.73
59825;BME280;45703;50.898;6.054;2023-02-10T05:20:13;102250.84;;;2.34;87.92
59825;BME280;45703;50.898;6.054;2023-02-10T05:22:39;102252.25;;;2.27;87.94
59825;BME280;45703;50.898;6.054;2023-02-10T05:25:05;102251.53;;;2.25;88.14
59825;BME280;45703;50.898;6.054;2023-02-10T05:27:30;102257.28;;;2.19;88.31
59825;BME280;45703;50.898;6.054;2023-02-10T05:29:56;102251.69;;;2.12;88.59
59825;BME280;45703;50.898;6.054;2023-02-10T05:32:21;102248.19;;;2.12;88.49
59825;BME280;45703;50.898;6.054;2023-02-10T05:34:46;102248.56;;;2.07;88.49
59825;BME280;45703;50.898;6.054;2023-02-10T05:37:12;102248.66;;;2.06;88.67
59825;BME280;45703;50.898;6.054;2023-02-10T05:39:38;102257.75;;;2.02;88.67
59825;BME280;45703;50.898;6.054;2023-02-10T05:42:03;102262.53;;;1.97;88.87
59825;BME280;45703;50.898;6.054;2023-02-10T05:44:29;102266.13;;;1.96;89.00
59825;BME280;45703;50.898;6.054;2023-02-10T05:46:55;102250.66;;;1.91;89.11
59825;BME280;45703;50.898;6.054;2023-02-10T05:49:20;102253.53;;;1.88;89.10
59825;BME280;45703;50.898;6.054;2023-02-10T05:51:46;102256.78;;;1.92;89.22
59825;BME280;45703;50.898;6.054;2023-02-10T05:54:12;102257.28;;;1.97;89.22
59825;BME280;45703;50.898;6.054;2023-02-10T05:56:38;102256.31;;;1.98;89.32
59825;BME280;45703;50.898;6.054;2023-02-10T05:59:03;102250.09;;;1.99;89.30
59825;BME280;45703;50.898;6.054;2023-02-10T06:01:29;102258.94;;;1.98;89.45
59825;BME280;45703;50.898;6.054;2023-02-10T06:03:55;102260.41;;;2.02;89.42
59825;BME280;45703;50.898;6.054;2023-02-10T06:06:20;102257.28;;;1.97;89.54
59825;BME280;45703;50.898;6.054;2023-02-10T06:08:46;102252.00;;;1.97;89.60
59825;BME280;45703;50.898;6.054;2023-02-10T06:11:11;102256.56;;;2.06;89.74
59825;BME280;45703;50.898;6.054;2023-02-10T06:13:37;102266.16;;;2.07;89.58
59825;BME280;45703;50.898;6.054;2023-02-10T06:16:02;102264.25;;;2.20;89.56
59825;BME280;45703;50.898;6.054;2023-02-10T06:18:35;102268.44;;;2.22;89.44
59825;BME280;45703;50.898;6.054;2023-02-10T06:21:01;102273.00;;;2.20;89.64
59825;BME280;45703;50.898;6.054;2023-02-10T06:23:26;102274.31;;;2.26;89.27
59825;BME280;45703;50.898;6.054;2023-02-10T06:25:52;102275.78;;;2.30;89.34
59825;BME280;45703;50.898;6.054;2023-02-10T06:28:24;102287.47;;;2.26;89.10
59825;BME280;45703;50.898;6.054;2023-02-10T06:30:50;102277.66;;;2.28;89.17
59825;BME280;45703;50.898;6.054;2023-02-10T06:33:15;102286.75;;;2.24;89.15
59825;BME280;45703;50.898;6.054;2023-02-10T06:35:41;102284.75;;;2.27;89.12
59825;BME280;45703;50.898;6.054;2023-02-10T06:38:35;102289.53;;;2.33;89.18
59825;BME280;45703;50.898;6.054;2023-02-10T06:41:02;102293.69;;;2.25;89.26
59825;BME280;45703;50.898;6.054;2023-02-10T06:43:27;102291.78;;;2.27;89.20
59825;BME280;45703;50.898;6.054;2023-02-10T06:45:52;102289.38;;;2.24;89.49
59825;BME280;45703;50.898;6.054;2023-02-10T06:48:19;102299.22;;;2.22;89.40
59825;BME280;45703;50.898;6.054;2023-02-10T06:50:45;102291.78;;;2.16;89.58
59825;BME280;45703;50.898;6.054;2023-02-10T06:53:10;102306.16;;;2.23;89.49
59825;BME280;45703;50.898;6.054;2023-02-10T06:55:36;102302.09;;;2.19;89.68
59825;BME280;45703;50.898;6.054;2023-02-10T06:58:02;102308.78;;;2.23;89.70
59825;BME280;45703;50.898;6.054;2023-02-10T07:00:28;102300.53;;;2.16;89.86
59825;BME280;45703;50.898;6.054;2023-02-10T07:02:53;102300.41;;;2.18;89.86
59825;BME280;45703;50.898;6.054;2023-02-10T07:05:19;102299.44;;;2.19;89.81
59825;BME280;45703;50.898;6.054;2023-02-10T07:07:45;102306.88;;;2.14;90.01
59825;BME280;45703;50.898;6.054;2023-02-10T07:10:10;102304.97;;;2.16;90.28
59825;BME280;45703;50.898;6.054;2023-02-10T07:12:37;102308.19;;;2.08;90.28
59825;BME280;45703;50.898;6.054;2023-02-10T07:15:02;102303.75;;;2.09;90.32
59825;BME280;45703;50.898;6.054;2023-02-10T07:17:29;102303.97;;;2.06;90.42
59825;BME280;45703;50.898;6.054;2023-02-10T07:19:54;102299.78;;;2.03;90.55
59825;BME280;45703;50.898;6.054;2023-02-10T07:22:19;102297.28;;;2.02;90.49
59825;BME280;45703;50.898;6.054;2023-02-10T07:24:45;102288.50;;;2.01;90.69
59825;BME280;45703;50.898;6.054;2023-02-10T07:27:11;102293.19;;;1.98;90.73
59825;BME280;45703;50.898;6.054;2023-02-10T07:29:36;102303.84;;;1.96;91.15
59825;BME280;45703;50.898;6.054;2023-02-10T07:32:02;102299.53;;;1.95;91.11
59825;BME280;45703;50.898;6.054;2023-02-10T07:34:28;102304.78;;;1.95;91.42
59825;BME280;45703;50.898;6.054;2023-02-10T07:36:56;102303.00;;;1.96;91.44
59825;BME280;45703;50.898;6.054;2023-02-10T07:39:22;102297.50;;;1.99;91.56
59825;BME280;45703;50.898;6.054;2023-02-10T07:42:06;102303.25;;;2.04;91.45
59825;BME280;45703;50.898;6.054;2023-02-10T07:44:32;102307.34;;;2.08;91.77
59825;BME280;45703;50.898;6.054;2023-02-10T07:46:59;102314.06;;;2.12;92.02
59825;BME280;45703;50.898;6.054;2023-02-10T07:49:24;102318.63;;;2.21;91.88
59825;BME280;45703;50.898;6.054;2023-02-10T07:51:52;102312.88;;;2.27;92.03
59825;BME280;45703;50.898;6.054;2023-02-10T07:54:18;102317.69;;;2.33;92.16
59825;BME280;45703;50.898;6.054;2023-02-10T07:56:45;102318.03;;;2.39;92.70
59825;BME280;45703;50.898;6.054;2023-02-10T07:59:34;102319.13;;;2.48;92.59
59825;BME280;45703;50.898;6.054;2023-02-10T08:02:00;102321.91;;;2.57;92.22
59825;BME280;45703;50.898;6.054;2023-02-10T08:04:25;102312.81;;;2.61;92.08
59825;BME280;45703;50.898;6.054;2023-02-10T08:06:51;102315.78;;;2.68;92.20
59825;BME280;45703;50.898;6.054;2023-02-10T08:09:17;102316.00;;;2.76;91.99
59825;BME280;45703;50.898;6.054;2023-02-10T08:11:43;102326.09;;;2.82;92.17
59825;BME280;45703;50.898;6.054;2023-02-10T08:14:09;102320.34;;;2.87;92.26
59825;BME280;45703;50.898;6.054;2023-02-10T08:16:34;102316.25;;;2.94;92.30
59825;BME280;45703;50.898;6.054;2023-02-10T08:19:00;102323.44;;;3.03;92.51
59825;BME280;45703;50.898;6.054;2023-02-10T08:21:26;102328.94;;;3.11;92.16
59825;BME280;45703;50.898;6.054;2023-02-10T08:23:51;102338.63;;;3.22;91.98
59825;BME280;45703;50.898;6.054;2023-02-10T08:26:20;102335.25;;;3.31;91.75
59825;BME280;45703;50.898;6.054;2023-02-10T08:28:45;102346.63;;;3.42;91.34
59825;BME280;45703;50.898;6.054;2023-02-10T08:31:11;102343.22;;;3.51;91.44
59825;BME280;45703;50.898;6.054;2023-02-10T08:33:37;102332.75;;;3.61;92.06
59825;BME280;45703;50.898;6.054;2023-02-10T08:36:04;102340.75;;;3.70;92.09
59825;BME280;45703;50.898;6.054;2023-02-10T08:38:29;102347.66;;;3.82;90.76
59825;BME280;45703;50.898;6.054;2023-02-10T08:40:55;102345.00;;;3.93;90.30
59825;BME280;45703;50.898;6.054;2023-02-10T08:43:21;102334.59;;;4.01;90.08
59825;BME280;45703;50.898;6.054;2023-02-10T08:45:47;102331.91;;;4.12;89.91
59825;BME280;45703;50.898;6.054;2023-02-10T08:48:12;102329.88;;;4.25;89.53
59825;BME280;45703;50.898;6.054;2023-02-10T08:50:38;102325.75;;;4.32;89.16
59825;BME280;45703;50.898;6.054;2023-02-10T08:53:03;102320.47;;;4.32;89.14
59825;BME280;45703;50.898;6.054;2023-02-10T08:55:28;102322.41;;;4.30;89.24
59825;BME280;45703;50.898;6.054;2023-02-10T08:57:53;102329.63;;;4.28;89.38
59825;BME280;45703;50.898;6.054;2023-02-10T09:00:19;102330.06;;;4.33;89.35
59825;BME280;45703;50.898;6.054;2023-02-10T09:02:44;102322.41;;;4.30;89.32
59825;BME280;45703;50.898;6.054;2023-02-10T09:05:09;102318.09;;;4.29;89.51
59825;BME280;45703;50.898;6.054;2023-02-10T09:07:35;102323.31;;;4.40;89.21
59825;BME280;45703;50.898;6.054;2023-02-10T09:10:00;102319.97;;;4.38;89.16
59825;BME280;45703;50.898;6.054;2023-02-10T09:12:26;102318.03;;;4.40;89.24
59825;BME280;45703;50.898;6.054;2023-02-10T09:14:52;102327.38;;;4.44;89.37
59825;BME280;45703;50.898;6.054;2023-02-10T09:17:17;102325.34;;;4.57;89.28
59825;BME280;45703;50.898;6.054;2023-02-10T09:19:43;102322.69;;;4.57;89.13
59825;BME280;45703;50.898;6.054;2023-02-10T09:22:09;102324.28;;;4.69;89.13
59825;BME280;45703;50.898;6.054;2023-02-10T09:24:35;102333.19;;;4.68;89.46
59825;BME280;45703;50.898;6.054;2023-02-10T09:27:00;102329.31;;;4.72;89.66
59825;BME280;45703;50.898;6.054;2023-02-10T09:29:26;102324.31;;;4.78;89.26
59825;BME280;45703;50.898;6.054;2023-02-10T09:31:51;102335.22;;;4.85;88.92
59825;BME280;45703;50.898;6.054;2023-02-10T09:34:17;102330.63;;;4.87;89.11
59825;BME280;45703;50.898;6.054;2023-02-10T09:36:42;102333.00;;;4.90;88.88
59825;BME280;45703;50.898;6.054;2023-02-10T09:39:08;102327.19;;;4.96;88.65
59825;BME280;45703;50.898;6.054;2023-02-10T09:54:20;102340.63;;;5.23;89.06
59825;BME280;45703;50.898;6.054;2023-02-10T09:56:46;102347.03;;;5.30;88.48
59825;BME280;45703;50.898;6.054;2023-02-10T09:59:13;102345.09;;;5.32;88.45
59825;BME280;45703;50.898;6.054;2023-02-10T10:01:42;102342.03;;;5.36;88.46
59825;BME280;45703;50.898;6.054;2023-02-10T10:06:35;102337.06;;;5.43;88.01
59825;BME280;45703;50.898;6.054;2023-02-10T10:09:03;102329.09;;;5.43;88.22
59825;BME280;45703;50.898;6.054;2023-02-10T10:11:41;102344.03;;;5.44;88.19
59825;BME280;45703;50.898;6.054;2023-02-10T10:14:17;102346.41;;;5.47;88.25
59825;BME280;45703;50.898;6.054;2023-02-10T10:17:07;102350.16;;;5.54;88.17
59825;BME280;45703;50.898;6.054;2023-02-10T10:27:48;102355.75;;;5.69;86.67
59825;BME280;45703;50.898;6.054;2023-02-10T10:30:16;102361.03;;;5.69;86.58
59825;BME280;45703;50.898;6.054;2023-02-10T10:32:44;102357.16;;;5.73;86.89
59825;BME280;45703;50.898;6.054;2023-02-10T10:35:17;102364.13;;;5.74;87.00
59825;BME280;45703;50.898;6.054;2023-02-10T10:37:43;102367.50;;;5.86;86.49
59825;BME280;45703;50.898;6.054;2023-02-10T10:40:08;102367.53;;;5.95;85.90
59825;BME280;45703;50.898;6.054;2023-02-10T10:42:41;102359.56;;;5.95;85.69
59825;BME280;45703;50.898;6.054;2023-02-10T10:50:20;102357.31;;;6.10;85.43
59825;BME280;45703;50.898;6.054;2023-02-10T10:52:46;102356.19;;;6.12;85.70
59825;BME280;45703;50.898;6.054;2023-02-10T10:58:01;102359.09;;;6.28;84.51
59825;BME280;45703;50.898;6.054;2023-02-10T11:00:28;102358.69;;;6.33;84.44
59825;BME280;45703;50.898;6.054;2023-02-10T11:02:55;102345.81;;;6.38;83.49
59825;BME280;45703;50.898;6.054;2023-02-10T11:05:21;102352.69;;;6.40;83.20
59825;BME280;45703;50.898;6.054;2023-02-10T11:07:48;102352.38;;;6.43;82.81
59825;BME280;45703;50.898;6.054;2023-02-10T11:10:26;102351.13;;;6.47;83.36
59825;BME280;45703;50.898;6.054;2023-02-10T11:12:52;102344.25;;;6.54;82.80
59825;BME280;45703;50.898;6.054;2023-02-10T11:15:37;102336.69;;;6.59;82.68
59825;BME280;45703;50.898;6.054;2023-02-10T11:18:06;102327.47;;;6.63;82.95
59825;BME280;45703;50.898;6.054;2023-02-10T11:20:39;102339.16;;;6.70;81.41
59825;BME280;45703;50.898;6.054;2023-02-10T11:23:12;102334.94;;;6.77;81.33
59825;BME280;45703;50.898;6.054;2023-02-10T11:25:38;102325.00;;;6.79;81.83
59825;BME280;45703;50.898;6.054;2023-02-10T11:28:06;102330.97;;;6.91;80.97
59825;BME280;45703;50.898;6.054;2023-02-10T11:30:45;102336.25;;;7.00;80.10
59825;BME280;45703;50.898;6.054;2023-02-10T11:33:19;102328.00;;;7.03;80.27
59825;BME280;45703;50.898;6.054;2023-02-10T11:35:51;102336.03;;;7.11;78.89
59825;BME280;45703;50.898;6.054;2023-02-10T11:38:19;102316.56;;;7.20;77.99
59825;BME280;45703;50.898;6.054;2023-02-10T11:40:49;102320.59;;;7.24;77.25
59825;BME280;45703;50.898;6.054;2023-02-10T11:43:15;102320.16;;;7.28;77.30
59825;BME280;45703;50.898;6.054;2023-02-10T11:46:01;102306.56;;;7.31;78.19
59825;BME280;45703;50.898;6.054;2023-02-10T11:48:27;102290.31;;;7.34;76.98
59825;BME280;45703;50.898;6.054;2023-02-10T11:51:12;102302.19;;;7.40;78.21
59825;BME280;45703;50.898;6.054;2023-02-10T11:53:38;102302.56;;;7.45;78.35
59825;BME280;45703;50.898;6.054;2023-02-10T11:58:48;102310.00;;;7.59;77.91
59825;BME280;45703;50.898;6.054;2023-02-10T12:06:41;102299.31;;;7.68;76.26
59825;BME280;45703;50.898;6.054;2023-02-10T12:11:53;102302.34;;;7.73;75.70
59825;BME280;45703;50.898;6.054;2023-02-10T12:22:03;102300.25;;;7.85;77.19
59825;BME280;45703;50.898;6.054;2023-02-10T12:24:47;102284.84;;;7.88;76.31
59825;BME280;45703;50.898;6.054;2023-02-10T12:30:36;102279.88;;;7.93;76.90
59825;BME280;45703;50.898;6.054;2023-02-10T12:37:55;102267.19;;;8.05;76.58
59825;BME280;45703;50.898;6.054;2023-02-10T12:40:31;102261.22;;;8.11;76.54
59825;BME280;45703;50.898;6.054;2023-02-10T12:53:37;102243.09;;;8.32;76.78
59825;BME280;45703;50.898;6.054;2023-02-10T12:56:05;102239.97;;;8.36;75.85
59825;BME280;45703;50.898;6.054;2023-02-10T12:58:41;102235.63;;;8.35;75.38
59825;BME280;45703;50.898;6.054;2023-02-10T13:03:42;102229.81;;;8.40;75.29
59825;BME280;45703;50.898;6.054;2023-02-10T13:06:21;102230.50;;;8.42;74.85
59825;BME280;45703;50.898;6.054;2023-02-10T13:08:55;102220.59;;;8.52;74.08
59825;BME280;45703;50.898;6.054;2023-02-10T13:11:33;102226.25;;;8.57;72.53
59825;BME280;45703;50.898;6.054;2023-02-10T13:13:59;102222.59;;;8.57;70.39
59825;BME280;45703;50.898;6.054;2023-02-10T13:16:28;102225.09;;;8.59;71.98
59825;BME280;45703;50.898;6.054;2023-02-10T13:21:59;102211.63;;;8.60;72.43
59825;BME280;45703;50.898;6.054;2023-02-10T13:24:34;102202.78;;;8.60;71.33
59825;BME280;45703;50.898;6.054;2023-02-10T13:29:58;102219.94;;;8.57;70.70
59825;BME280;45703;50.898;6.054;2023-02-10T13:35:10;102215.59;;;8.57;70.85
59825;BME280;45703;50.898;6.054;2023-02-10T13:40:17;102219.66;;;8.68;72.03
59825;BME280;45703;50.898;6.054;2023-02-10T13:43:03;102217.66;;;8.70;71.49
59825;BME280;45703;50.898;6.054;2023-02-10T13:45:32;102214.84;;;8.72;71.87
59825;BME280;45703;50.898;6.054;2023-02-10T13:48:02;102194.69;;;8.69;70.65
59825;BME280;45703;50.898;6.054;2023-02-10T13:53:05;102204.66;;;8.67;70.71
59825;BME280;45703;50.898;6.054;2023-02-10T13:58:47;102198.69;;;8.73;71.33
59825;BME280;45703;50.898;6.054;2023-02-10T14:05:36;102202.91;;;8.92;72.00
59825;BME280;45703;50.898;6.054;2023-02-10T14:08:12;102195.44;;;8.95;71.95
59825;BME280;45703;50.898;6.054;2023-02-10T14:10:37;102197.59;;;9.00;70.42
59825;BME280;45703;50.898;6.054;2023-02-10T14:13:21;102191.78;;;8.96;69.12
59825;BME280;45703;50.898;6.054;2023-02-10T14:16:02;102200.38;;;8.90;69.44
59825;BME280;45703;50.898;6.054;2023-02-10T14:18:36;102193.72;;;8.86;70.23
59825;BME280;45703;50.898;6.054;2023-02-10T14:21:03;102195.03;;;8.82;70.43
59825;BME280;45703;50.898;6.054;2023-02-10T14:23:30;102188.69;;;8.75;71.52
59825;BME280;45703;50.898;6.054;2023-02-10T14:25:56;102189.88;;;8.73;70.45
59825;BME280;45703;50.898;6.054;2023-02-10T14:28:24;102193.34;;;8.65;70.60
59825;BME280;45703;50.898;6.054;2023-02-10T14:30:54;102184.69;;;8.63;69.86
59825;BME280;45703;50.898;6.054;2023-02-10T14:35:49;102187.50;;;8.62;71.52
59825;BME280;45703;50.898;6.054;2023-02-10T14:38:21;102180.34;;;8.62;71.81
59825;BME280;45703;50.898;6.054;2023-02-10T14:40:47;102189.34;;;8.69;71.32
59825;BME280;45703;50.898;6.054;2023-02-10T14:43:13;102180.03;;;8.73;70.90
59825;BME280;45703;50.898;6.054;2023-02-10T14:45:41;102187.88;;;8.75;72.24
59825;BME280;45703;50.898;6.054;2023-02-10T14:48:12;102194.72;;;8.85;72.01
59825;BME280;45703;50.898;6.054;2023-02-10T14:50:39;102194.38;;;8.88;71.07